sensor_id;sensor_type;location;lat;lon;timestamp;P1;durP1;ratioP1;P2;durP2;ratioP2
4700;SDS011;8724;51.272;6.554;2023-03-01T00:01:19;8.20;;;6.03;;
4700;SDS011;8724;51.272;6.554;2023-03-01T00:03:49;5.93;;;5.00;;
4700;SDS011;8724;51.272;6.554;2023-03-01T00:06:18;6.77;;;5.07;;
4700;SDS011;8724;51.272;6.554;2023-03-01T00:08:47;7.47;;;5.70;;
4700;SDS011;8724;51.272;6.554;2023-03-01T00:11:16;7.53;;;5.37;;
4700;SDS011;8724;51.272;6.554;2023-03-01T00:13:47;7.10;;;5.90;;
4700;SDS011;8724;51.272;6.554;2023-03-01T00:16:18;6.97;;;5.50;;
4700;SDS011;8724;51.272;6.554;2023-03-01T00:18:48;8.70;;;5.90;;
4700;SDS011;8724;51.272;6.554;2023-03-01T00:21:17;9.10;;;6.00;;
4700;SDS011;8724;51.272;6.554;2023-03-01T00:23:47;7.70;;;5.27;;
4700;SDS011;8724;51.272;6.554;2023-03-01T00:26:17;8.17;;;6.07;;
4700;SDS011;8724;51.272;6.554;2023-03-01T00:28:46;6.93;;;5.90;;
4700;SDS011;8724;51.272;6.554;2023-03-01T00:31:15;8.87;;;5.50;;
4700;SDS011;8724;51.272;6.554;2023-03-01T00:33:47;7.23;;;5.77;;
4700;SDS011;8724;51.272;6.554;2023-03-01T00:36:15;14.40;;;5.60;;
4700;SDS011;8724;51.272;6.554;2023-03-01T00:38:44;6.60;;;5.50;;
4700;SDS011;8724;51.272;6.554;2023-03-01T00:41:14;7.90;;;5.30;;
4700;SDS011;8724;51.272;6.554;2023-03-01T00:43:44;9.23;;;5.97;;
4700;SDS011;8724;51.272;6.554;2023-03-01T00:46:13;7.20;;;5.30;;
4700;SDS011;8724;51.272;6.554;2023-03-01T00:48:44;6.90;;;5.73;;
4700;SDS011;8724;51.272;6.554;2023-03-01T00:51:13;6.93;;;5.60;;
4700;SDS011;8724;51.272;6.554;2023-03-01T00:53:43;6.10;;;5.30;;
4700;SDS011;8724;51.272;6.554;2023-03-01T00:56:12;5.90;;;5.30;;
4700;SDS011;8724;51.272;6.554;2023-03-01T00:58:42;7.63;;;5.37;;
4700;SDS011;8724;51.272;6.554;2023-03-01T01:01:13;7.80;;;5.00;;
4700;SDS011;8724;51.272;6.554;2023-03-01T01:03:47;7.67;;;5.50;;
4700;SDS011;8724;51.272;6.554;2023-03-01T01:06:16;8.63;;;6.30;;
4700;SDS011;8724;51.272;6.554;2023-03-01T01:08:49;7.43;;;6.27;;
4700;SDS011;8724;51.272;6.554;2023-03-01T01:11:18;6.10;;;5.40;;
4700;SDS011;8724;51.272;6.554;2023-03-01T01:13:48;7.73;;;6.00;;
4700;SDS011;8724;51.272;6.554;2023-03-01T01:16:17;7.03;;;5.93;;
4700;SDS011;8724;51.272;6.554;2023-03-01T01:18:47;8.07;;;5.63;;
4700;SDS011;8724;51.272;6.554;2023-03-01T01:21:16;10.13;;;6.10;;
4700;SDS011;8724;51.272;6.554;2023-03-01T01:23:46;7.43;;;5.60;;
4700;SDS011;8724;51.272;6.554;2023-03-01T01:26:15;8.20;;;6.20;;
4700;SDS011;8724;51.272;6.554;2023-03-01T01:28:44;7.23;;;5.90;;
4700;SDS011;8724;51.272;6.554;2023-03-01T01:31:15;7.73;;;6.20;;
4700;SDS011;8724;51.272;6.554;2023-03-01T01:33:43;7.50;;;5.40;;
4700;SDS011;8724;51.272;6.554;2023-03-01T01:36:13;8.30;;;6.27;;
4700;SDS011;8724;51.272;6.554;2023-03-01T01:38:42;7.00;;;6.30;;
4700;SDS011;8724;51.272;6.554;2023-03-01T01:41:11;6.37;;;5.70;;
4700;SDS011;8724;51.272;6.554;2023-03-01T01:43:41;7.47;;;6.13;;
4700;SDS011;8724;51.272;6.554;2023-03-01T01:46:14;9.80;;;6.00;;
4700;SDS011;8724;51.272;6.554;2023-03-01T01:48:49;8.87;;;6.27;;
4700;SDS011;8724;51.272;6.554;2023-03-01T01:51:25;6.40;;;5.70;;
4700;SDS011;8724;51.272;6.554;2023-03-01T01:53:57;7.23;;;5.73;;
4700;SDS011;8724;51.272;6.554;2023-03-01T01:56:28;9.37;;;6.30;;
4700;SDS011;8724;51.272;6.554;2023-03-01T01:58:57;8.90;;;5.93;;
4700;SDS011;8724;51.272;6.554;2023-03-01T02:01:26;7.60;;;5.80;;
4700;SDS011;8724;51.272;6.554;2023-03-01T02:03:55;7.43;;;5.83;;
4700;SDS011;8724;51.272;6.554;2023-03-01T02:06:27;8.37;;;5.50;;
4700;SDS011;8724;51.272;6.554;2023-03-01T02:09:00;6.70;;;5.47;;
4700;SDS011;8724;51.272;6.554;2023-03-01T02:11:33;6.80;;;6.10;;
4700;SDS011;8724;51.272;6.554;2023-03-01T02:14:04;11.87;;;6.87;;
4700;SDS011;8724;51.272;6.554;2023-03-01T02:16:32;9.83;;;6.40;;
4700;SDS011;8724;51.272;6.554;2023-03-01T02:19:02;8.50;;;6.50;;
4700;SDS011;8724;51.272;6.554;2023-03-01T02:21:37;6.80;;;6.10;;
4700;SDS011;8724;51.272;6.554;2023-03-01T02:24:17;6.07;;;5.03;;
4700;SDS011;8724;51.272;6.554;2023-03-01T02:26:55;6.80;;;6.10;;
4700;SDS011;8724;51.272;6.554;2023-03-01T02:29:26;6.13;;;5.53;;
4700;SDS011;8724;51.272;6.554;2023-03-01T02:31:56;9.27;;;5.90;;
4700;SDS011;8724;51.272;6.554;2023-03-01T02:34:27;6.80;;;6.20;;
4700;SDS011;8724;51.272;6.554;2023-03-01T02:36:57;7.40;;;5.97;;
4700;SDS011;8724;51.272;6.554;2023-03-01T02:39:30;9.47;;;5.57;;
4700;SDS011;8724;51.272;6.554;2023-03-01T02:42:01;7.13;;;6.07;;
4700;SDS011;8724;51.272;6.554;2023-03-01T02:44:32;9.93;;;6.57;;
4700;SDS011;8724;51.272;6.554;2023-03-01T02:47:01;8.23;;;6.20;;
4700;SDS011;8724;51.272;6.554;2023-03-01T02:49:31;9.47;;;6.23;;
4700;SDS011;8724;51.272;6.554;2023-03-01T02:52:08;8.23;;;6.40;;
4700;SDS011;8724;51.272;6.554;2023-03-01T02:54:58;10.40;;;5.90;;
4700;SDS011;8724;51.272;6.554;2023-03-01T02:57:29;6.73;;;5.70;;
4700;SDS011;8724;51.272;6.554;2023-03-01T03:00:01;6.93;;;6.27;;
4700;SDS011;8724;51.272;6.554;2023-03-01T03:02:34;8.30;;;5.73;;
4700;SDS011;8724;51.272;6.554;2023-03-01T03:05:14;8.83;;;6.37;;
4700;SDS011;8724;51.272;6.554;2023-03-01T03:07:46;6.13;;;5.53;;
4700;SDS011;8724;51.272;6.554;2023-03-01T03:10:17;7.30;;;5.93;;
4700;SDS011;8724;51.272;6.554;2023-03-01T03:12:49;7.80;;;6.83;;
4700;SDS011;8724;51.272;6.554;2023-03-01T03:15:20;6.93;;;6.20;;
4700;SDS011;8724;51.272;6.554;2023-03-01T03:17:49;7.00;;;5.77;;
4700;SDS011;8724;51.272;6.554;2023-03-01T03:20:20;6.77;;;6.00;;
4700;SDS011;8724;51.272;6.554;2023-03-01T03:22:50;8.00;;;7.00;;
4700;SDS011;8724;51.272;6.554;2023-03-01T03:25:20;7.87;;;5.93;;
4700;SDS011;8724;51.272;6.554;2023-03-01T03:27:50;7.00;;;6.27;;
4700;SDS011;8724;51.272;6.554;2023-03-01T03:30:25;6.40;;;5.90;;
4700;SDS011;8724;51.272;6.554;2023-03-01T03:32:55;9.83;;;6.07;;
4700;SDS011;8724;51.272;6.554;2023-03-01T03:35:24;7.17;;;6.00;;
4700;SDS011;8724;51.272;6.554;2023-03-01T03:37:57;7.77;;;6.97;;
4700;SDS011;8724;51.272;6.554;2023-03-01T03:40:34;7.47;;;6.67;;
4700;SDS011;8724;51.272;6.554;2023-03-01T03:43:04;8.13;;;6.40;;
4700;SDS011;8724;51.272;6.554;2023-03-01T03:45:35;7.57;;;5.97;;
4700;SDS011;8724;51.272;6.554;2023-03-01T03:48:05;8.33;;;6.77;;
4700;SDS011;8724;51.272;6.554;2023-03-01T03:50:35;6.70;;;5.50;;
4700;SDS011;8724;51.272;6.554;2023-03-01T03:53:05;7.43;;;6.23;;
4700;SDS011;8724;51.272;6.554;2023-03-01T03:55:35;6.97;;;6.27;;
4700;SDS011;8724;51.272;6.554;2023-03-01T03:58:06;7.47;;;6.77;;
4700;SDS011;8724;51.272;6.554;2023-03-01T04:00:39;9.97;;;7.17;;
4700;SDS011;8724;51.272;6.554;2023-03-01T04:03:08;8.33;;;5.90;;
4700;SDS011;8724;51.272;6.554;2023-03-01T04:05:40;7.23;;;6.03;;
4700;SDS011;8724;51.272;6.554;2023-03-01T04:08:09;6.60;;;5.97;;
4700;SDS011;8724;51.272;6.554;2023-03-01T04:10:38;9.43;;;7.07;;
4700;SDS011;8724;51.272;6.554;2023-03-01T04:13:09;7.23;;;6.33;;
4700;SDS011;8724;51.272;6.554;2023-03-01T04:15:40;8.63;;;6.63;;
4700;SDS011;8724;51.272;6.554;2023-03-01T04:18:09;7.73;;;6.20;;
4700;SDS011;8724;51.272;6.554;2023-03-01T04:20:40;7.10;;;6.47;;
4700;SDS011;8724;51.272;6.554;2023-03-01T04:23:12;7.30;;;6.27;;
4700;SDS011;8724;51.272;6.554;2023-03-01T04:25:45;6.93;;;6.23;;
4700;SDS011;8724;51.272;6.554;2023-03-01T04:28:20;7.97;;;7.13;;
4700;SDS011;8724;51.272;6.554;2023-03-01T04:30:52;7.90;;;7.03;;
4700;SDS011;8724;51.272;6.554;2023-03-01T04:33:22;7.40;;;6.13;;
4700;SDS011;8724;51.272;6.554;2023-03-01T04:35:50;8.93;;;6.90;;
4700;SDS011;8724;51.272;6.554;2023-03-01T04:38:19;7.00;;;6.30;;
4700;SDS011;8724;51.272;6.554;2023-03-01T04:40:48;7.60;;;6.80;;
4700;SDS011;8724;51.272;6.554;2023-03-01T04:43:16;6.90;;;6.20;;
4700;SDS011;8724;51.272;6.554;2023-03-01T04:45:45;8.83;;;6.63;;
4700;SDS011;8724;51.272;6.554;2023-03-01T04:48:15;7.60;;;6.80;;
4700;SDS011;8724;51.272;6.554;2023-03-01T04:50:43;9.60;;;6.40;;
4700;SDS011;8724;51.272;6.554;2023-03-01T04:53:11;8.57;;;6.83;;
4700;SDS011;8724;51.272;6.554;2023-03-01T04:55:40;11.40;;;10.00;;
4700;SDS011;8724;51.272;6.554;2023-03-01T04:58:08;16.00;;;14.20;;
4700;SDS011;8724;51.272;6.554;2023-03-01T05:00:36;20.50;;;15.97;;
4700;SDS011;8724;51.272;6.554;2023-03-01T05:03:05;20.40;;;16.87;;
4700;SDS011;8724;51.272;6.554;2023-03-01T05:05:35;16.47;;;10.20;;
4700;SDS011;8724;51.272;6.554;2023-03-01T05:08:06;8.33;;;7.30;;
4700;SDS011;8724;51.272;6.554;2023-03-01T05:10:35;8.87;;;7.33;;
4700;SDS011;8724;51.272;6.554;2023-03-01T05:13:05;7.97;;;6.90;;
4700;SDS011;8724;51.272;6.554;2023-03-01T05:15:34;9.10;;;7.13;;
4700;SDS011;8724;51.272;6.554;2023-03-01T05:18:03;7.47;;;6.77;;
4700;SDS011;8724;51.272;6.554;2023-03-01T05:20:39;7.53;;;6.73;;
4700;SDS011;8724;51.272;6.554;2023-03-01T05:23:07;6.30;;;5.70;;
4700;SDS011;8724;51.272;6.554;2023-03-01T05:25:36;7.07;;;6.33;;
4700;SDS011;8724;51.272;6.554;2023-03-01T05:28:07;7.40;;;6.60;;
4700;SDS011;8724;51.272;6.554;2023-03-01T05:30:39;8.13;;;7.27;;
4700;SDS011;8724;51.272;6.554;2023-03-01T05:33:08;7.30;;;6.60;;
4700;SDS011;8724;51.272;6.554;2023-03-01T05:35:41;8.23;;;6.63;;
4700;SDS011;8724;51.272;6.554;2023-03-01T05:38:11;9.20;;;6.60;;
4700;SDS011;8724;51.272;6.554;2023-03-01T05:40:41;9.70;;;7.23;;
4700;SDS011;8724;51.272;6.554;2023-03-01T05:43:11;9.73;;;7.03;;
4700;SDS011;8724;51.272;6.554;2023-03-01T05:45:40;10.50;;;9.40;;
4700;SDS011;8724;51.272;6.554;2023-03-01T05:48:09;25.93;;;18.43;;
4700;SDS011;8724;51.272;6.554;2023-03-01T05:50:38;22.50;;;17.57;;
4700;SDS011;8724;51.272;6.554;2023-03-01T05:53:10;13.27;;;11.00;;
4700;SDS011;8724;51.272;6.554;2023-03-01T05:55:41;9.00;;;8.10;;
4700;SDS011;8724;51.272;6.554;2023-03-01T05:58:11;8.00;;;6.80;;
4700;SDS011;8724;51.272;6.554;2023-03-01T06:00:42;11.03;;;7.63;;
4700;SDS011;8724;51.272;6.554;2023-03-01T06:03:12;9.20;;;7.73;;
4700;SDS011;8724;51.272;6.554;2023-03-01T06:05:42;9.50;;;7.23;;
4700;SDS011;8724;51.272;6.554;2023-03-01T06:08:12;9.47;;;7.30;;
4700;SDS011;8724;51.272;6.554;2023-03-01T06:10:41;7.20;;;6.50;;
4700;SDS011;8724;51.272;6.554;2023-03-01T06:13:09;8.47;;;7.03;;
4700;SDS011;8724;51.272;6.554;2023-03-01T06:15:37;9.50;;;6.70;;
4700;SDS011;8724;51.272;6.554;2023-03-01T06:18:06;8.30;;;6.63;;
4700;SDS011;8724;51.272;6.554;2023-03-01T06:20:34;8.87;;;7.70;;
4700;SDS011;8724;51.272;6.554;2023-03-01T06:23:03;7.73;;;6.83;;
4700;SDS011;8724;51.272;6.554;2023-03-01T06:25:32;7.67;;;6.87;;
4700;SDS011;8724;51.272;6.554;2023-03-01T06:28:01;9.40;;;7.80;;
4700;SDS011;8724;51.272;6.554;2023-03-01T06:30:30;8.53;;;7.63;;
4700;SDS011;8724;51.272;6.554;2023-03-01T06:32:59;8.70;;;6.33;;
4700;SDS011;8724;51.272;6.554;2023-03-01T06:35:28;7.90;;;7.10;;
4700;SDS011;8724;51.272;6.554;2023-03-01T06:37:58;9.10;;;7.37;;
4700;SDS011;8724;51.272;6.554;2023-03-01T06:40:28;9.30;;;6.97;;
4700;SDS011;8724;51.272;6.554;2023-03-01T06:42:58;7.53;;;6.83;;
4700;SDS011;8724;51.272;6.554;2023-03-01T06:45:27;48.10;;;39.43;;
4700;SDS011;8724;51.272;6.554;2023-03-01T06:48:02;104.70;;;79.90;;
4700;SDS011;8724;51.272;6.554;2023-03-01T06:50:32;47.00;;;37.53;;
4700;SDS011;8724;51.272;6.554;2023-03-01T06:53:01;22.90;;;18.43;;
4700;SDS011;8724;51.272;6.554;2023-03-01T06:55:30;12.50;;;10.60;;
4700;SDS011;8724;51.272;6.554;2023-03-01T06:58:00;8.47;;;7.63;;
4700;SDS011;8724;51.272;6.554;2023-03-01T07:00:30;8.73;;;7.80;;
4700;SDS011;8724;51.272;6.554;2023-03-01T07:02:59;8.23;;;7.33;;
4700;SDS011;8724;51.272;6.554;2023-03-01T07:05:29;8.90;;;7.30;;
4700;SDS011;8724;51.272;6.554;2023-03-01T07:07:58;10.30;;;7.73;;
4700;SDS011;8724;51.272;6.554;2023-03-01T07:10:26;8.20;;;7.27;;
4700;SDS011;8724;51.272;6.554;2023-03-01T07:12:55;9.07;;;7.27;;
4700;SDS011;8724;51.272;6.554;2023-03-01T07:15:26;8.57;;;7.67;;
4700;SDS011;8724;51.272;6.554;2023-03-01T07:17:55;8.43;;;7.50;;
4700;SDS011;8724;51.272;6.554;2023-03-01T07:20:24;7.70;;;7.00;;
4700;SDS011;8724;51.272;6.554;2023-03-01T07:22:52;12.57;;;7.60;;
4700;SDS011;8724;51.272;6.554;2023-03-01T07:25:21;8.23;;;6.87;;
4700;SDS011;8724;51.272;6.554;2023-03-01T07:27:50;7.33;;;6.70;;
4700;SDS011;8724;51.272;6.554;2023-03-01T07:30:19;8.20;;;7.40;;
4700;SDS011;8724;51.272;6.554;2023-03-01T07:32:49;8.13;;;7.23;;
4700;SDS011;8724;51.272;6.554;2023-03-01T07:35:21;8.90;;;7.43;;
4700;SDS011;8724;51.272;6.554;2023-03-01T07:37:49;7.63;;;6.93;;
4700;SDS011;8724;51.272;6.554;2023-03-01T07:40:18;8.00;;;7.20;;
4700;SDS011;8724;51.272;6.554;2023-03-01T07:42:46;7.33;;;6.70;;
4700;SDS011;8724;51.272;6.554;2023-03-01T07:45:15;8.63;;;7.10;;
4700;SDS011;8724;51.272;6.554;2023-03-01T07:47:43;8.40;;;7.53;;
4700;SDS011;8724;51.272;6.554;2023-03-01T07:50:13;7.80;;;6.70;;
4700;SDS011;8724;51.272;6.554;2023-03-01T07:52:41;10.10;;;7.43;;
4700;SDS011;8724;51.272;6.554;2023-03-01T07:55:12;8.37;;;7.43;;
4700;SDS011;8724;51.272;6.554;2023-03-01T07:57:41;10.60;;;7.13;;
4700;SDS011;8724;51.272;6.554;2023-03-01T08:00:10;8.10;;;7.30;;
4700;SDS011;8724;51.272;6.554;2023-03-01T08:02:39;8.70;;;7.20;;
4700;SDS011;8724;51.272;6.554;2023-03-01T08:05:08;8.77;;;7.77;;
4700;SDS011;8724;51.272;6.554;2023-03-01T08:07:39;8.37;;;7.47;;
4700;SDS011;8724;51.272;6.554;2023-03-01T08:10:07;7.90;;;7.17;;
4700;SDS011;8724;51.272;6.554;2023-03-01T08:12:37;8.70;;;7.90;;
4700;SDS011;8724;51.272;6.554;2023-03-01T08:15:06;7.53;;;6.83;;
4700;SDS011;8724;51.272;6.554;2023-03-01T08:17:35;11.37;;;8.67;;
4700;SDS011;8724;51.272;6.554;2023-03-01T08:20:04;8.77;;;7.90;;
4700;SDS011;8724;51.272;6.554;2023-03-01T08:22:33;9.10;;;8.20;;
4700;SDS011;8724;51.272;6.554;2023-03-01T08:25:03;9.43;;;7.47;;
4700;SDS011;8724;51.272;6.554;2023-03-01T08:27:32;11.67;;;7.97;;
4700;SDS011;8724;51.272;6.554;2023-03-01T08:30:01;8.87;;;7.43;;
4700;SDS011;8724;51.272;6.554;2023-03-01T08:32:29;8.20;;;7.40;;
4700;SDS011;8724;51.272;6.554;2023-03-01T08:34:57;12.73;;;8.50;;
4700;SDS011;8724;51.272;6.554;2023-03-01T08:37:26;8.03;;;7.30;;
4700;SDS011;8724;51.272;6.554;2023-03-01T08:39:57;8.73;;;7.83;;
4700;SDS011;8724;51.272;6.554;2023-03-01T08:42:27;8.63;;;7.63;;
4700;SDS011;8724;51.272;6.554;2023-03-01T08:44:56;12.53;;;7.20;;
4700;SDS011;8724;51.272;6.554;2023-03-01T08:47:24;8.53;;;7.70;;
4700;SDS011;8724;51.272;6.554;2023-03-01T08:49:53;10.83;;;8.60;;
4700;SDS011;8724;51.272;6.554;2023-03-01T08:52:22;9.00;;;7.40;;
4700;SDS011;8724;51.272;6.554;2023-03-01T08:54:51;9.60;;;6.90;;
4700;SDS011;8724;51.272;6.554;2023-03-01T08:57:19;8.17;;;6.73;;
4700;SDS011;8724;51.272;6.554;2023-03-01T08:59:49;8.97;;;8.10;;
4700;SDS011;8724;51.272;6.554;2023-03-01T09:02:17;8.03;;;7.23;;
4700;SDS011;8724;51.272;6.554;2023-03-01T09:04:47;7.43;;;6.83;;
4700;SDS011;8724;51.272;6.554;2023-03-01T09:07:15;8.00;;;7.13;;
4700;SDS011;8724;51.272;6.554;2023-03-01T09:09:44;8.23;;;7.33;;
4700;SDS011;8724;51.272;6.554;2023-03-01T09:12:12;8.10;;;6.57;;
4700;SDS011;8724;51.272;6.554;2023-03-01T09:14:41;7.90;;;7.10;;
4700;SDS011;8724;51.272;6.554;2023-03-01T09:17:10;8.30;;;7.17;;
4700;SDS011;8724;51.272;6.554;2023-03-01T09:19:39;7.57;;;6.77;;
4700;SDS011;8724;51.272;6.554;2023-03-01T09:22:07;7.30;;;6.60;;
4700;SDS011;8724;51.272;6.554;2023-03-01T09:24:36;7.40;;;6.70;;
4700;SDS011;8724;51.272;6.554;2023-03-01T09:27:04;6.90;;;6.30;;
4700;SDS011;8724;51.272;6.554;2023-03-01T09:29:35;14.27;;;11.60;;
4700;SDS011;8724;51.272;6.554;2023-03-01T09:32:04;25.80;;;19.47;;
4700;SDS011;8724;51.272;6.554;2023-03-01T09:34:34;16.87;;;14.23;;
4700;SDS011;8724;51.272;6.554;2023-03-01T09:37:23;11.77;;;9.50;;
4700;SDS011;8724;51.272;6.554;2023-03-01T09:39:52;10.23;;;8.53;;
4700;SDS011;8724;51.272;6.554;2023-03-01T09:42:20;8.80;;;7.90;;
4700;SDS011;8724;51.272;6.554;2023-03-01T09:44:50;7.07;;;6.37;;
4700;SDS011;8724;51.272;6.554;2023-03-01T09:47:21;7.93;;;7.13;;
4700;SDS011;8724;51.272;6.554;2023-03-01T09:49:58;8.50;;;7.50;;
4700;SDS011;8724;51.272;6.554;2023-03-01T09:52:34;7.87;;;7.07;;
4700;SDS011;8724;51.272;6.554;2023-03-01T09:55:09;7.37;;;6.50;;
4700;SDS011;8724;51.272;6.554;2023-03-01T09:57:42;10.07;;;7.60;;
4700;SDS011;8724;51.272;6.554;2023-03-01T10:03:09;7.73;;;6.90;;
4700;SDS011;8724;51.272;6.554;2023-03-01T10:06:01;8.70;;;7.77;;
4700;SDS011;8724;51.272;6.554;2023-03-01T10:08:40;12.17;;;7.30;;
4700;SDS011;8724;51.272;6.554;2023-03-01T10:11:17;7.43;;;6.73;;
4700;SDS011;8724;51.272;6.554;2023-03-01T10:14:01;7.93;;;7.13;;
4700;SDS011;8724;51.272;6.554;2023-03-01T10:16:36;7.70;;;6.90;;
4700;SDS011;8724;51.272;6.554;2023-03-01T10:19:10;8.73;;;6.90;;
4700;SDS011;8724;51.272;6.554;2023-03-01T10:21:44;7.73;;;6.93;;
4700;SDS011;8724;51.272;6.554;2023-03-01T10:24:14;7.20;;;6.50;;
4700;SDS011;8724;51.272;6.554;2023-03-01T10:26:47;7.30;;;6.60;;
4700;SDS011;8724;51.272;6.554;2023-03-01T10:29:23;6.87;;;6.23;;
4700;SDS011;8724;51.272;6.554;2023-03-01T10:31:53;8.20;;;7.00;;
4700;SDS011;8724;51.272;6.554;2023-03-01T10:34:27;7.60;;;6.90;;
4700;SDS011;8724;51.272;6.554;2023-03-01T10:36:57;7.87;;;7.07;;
4700;SDS011;8724;51.272;6.554;2023-03-01T10:39:35;8.90;;;7.60;;
4700;SDS011;8724;51.272;6.554;2023-03-01T10:42:04;9.63;;;7.13;;
4700;SDS011;8724;51.272;6.554;2023-03-01T10:44:47;10.90;;;7.53;;
4700;SDS011;8724;51.272;6.554;2023-03-01T10:47:18;8.30;;;7.40;;
4700;SDS011;8724;51.272;6.554;2023-03-01T10:49:52;8.30;;;7.07;;
4700;SDS011;8724;51.272;6.554;2023-03-01T10:52:24;8.63;;;7.73;;
4700;SDS011;8724;51.272;6.554;2023-03-01T10:54:55;8.80;;;6.93;;
4700;SDS011;8724;51.272;6.554;2023-03-01T10:57:29;7.33;;;6.60;;
4700;SDS011;8724;51.272;6.554;2023-03-01T11:03:03;8.20;;;7.00;;
4700;SDS011;8724;51.272;6.554;2023-03-01T11:05:49;8.13;;;6.90;;
4700;SDS011;8724;51.272;6.554;2023-03-01T11:08:31;7.90;;;7.13;;
4700;SDS011;8724;51.272;6.554;2023-03-01T11:11:06;9.53;;;7.67;;
4700;SDS011;8724;51.272;6.554;2023-03-01T11:14:00;8.90;;;7.13;;
4700;SDS011;8724;51.272;6.554;2023-03-01T11:16:57;7.80;;;7.00;;
4700;SDS011;8724;51.272;6.554;2023-03-01T11:19:27;7.23;;;6.37;;
4700;SDS011;8724;51.272;6.554;2023-03-01T11:21:57;7.90;;;5.90;;
4700;SDS011;8724;51.272;6.554;2023-03-01T11:24:32;7.30;;;6.50;;
4700;SDS011;8724;51.272;6.554;2023-03-01T11:27:13;7.10;;;6.40;;
4700;SDS011;8724;51.272;6.554;2023-03-01T11:29:46;7.67;;;6.30;;
4700;SDS011;8724;51.272;6.554;2023-03-01T11:32:20;7.30;;;6.60;;
4700;SDS011;8724;51.272;6.554;2023-03-01T11:34:54;5.47;;;4.90;;
4700;SDS011;8724;51.272;6.554;2023-03-01T11:37:36;7.57;;;6.80;;
4700;SDS011;8724;51.272;6.554;2023-03-01T11:40:13;12.50;;;9.60;;
4700;SDS011;8724;51.272;6.554;2023-03-01T11:42:54;24.90;;;19.70;;
4700;SDS011;8724;51.272;6.554;2023-03-01T11:45:32;20.90;;;15.60;;
4700;SDS011;8724;51.272;6.554;2023-03-01T11:48:24;11.70;;;10.17;;
4700;SDS011;8724;51.272;6.554;2023-03-01T11:51:17;9.07;;;7.20;;
4700;SDS011;8724;51.272;6.554;2023-03-01T11:53:59;9.53;;;7.10;;
4700;SDS011;8724;51.272;6.554;2023-03-01T11:56:35;7.97;;;6.30;;
4700;SDS011;8724;51.272;6.554;2023-03-01T12:05:08;6.20;;;5.10;;
4700;SDS011;8724;51.272;6.554;2023-03-01T12:07:57;5.10;;;4.67;;
4700;SDS011;8724;51.272;6.554;2023-03-01T12:10:35;4.83;;;4.37;;
4700;SDS011;8724;51.272;6.554;2023-03-01T12:13:26;6.53;;;4.73;;
4700;SDS011;8724;51.272;6.554;2023-03-01T12:16:15;5.50;;;5.00;;
4700;SDS011;8724;51.272;6.554;2023-03-01T12:19:21;6.93;;;5.53;;
4700;SDS011;8724;51.272;6.554;2023-03-01T12:22:03;6.53;;;5.53;;
4700;SDS011;8724;51.272;6.554;2023-03-01T12:24:44;6.53;;;5.83;;
4700;SDS011;8724;51.272;6.554;2023-03-01T12:27:33;6.77;;;5.00;;
4700;SDS011;8724;51.272;6.554;2023-03-01T12:30:19;6.00;;;4.77;;
4700;SDS011;8724;51.272;6.554;2023-03-01T12:33:00;6.37;;;4.80;;
4700;SDS011;8724;51.272;6.554;2023-03-01T12:35:48;5.20;;;4.20;;
4700;SDS011;8724;51.272;6.554;2023-03-01T12:38:31;7.20;;;4.37;;
4700;SDS011;8724;51.272;6.554;2023-03-01T12:44:11;7.13;;;6.40;;
4700;SDS011;8724;51.272;6.554;2023-03-01T12:47:03;23.23;;;16.30;;
4700;SDS011;8724;51.272;6.554;2023-03-01T12:49:39;15.50;;;10.97;;
4700;SDS011;8724;51.272;6.554;2023-03-01T12:52:13;10.43;;;7.23;;
4700;SDS011;8724;51.272;6.554;2023-03-01T12:54:44;8.87;;;6.80;;
4700;SDS011;8724;51.272;6.554;2023-03-01T12:57:15;10.23;;;5.33;;
4700;SDS011;8724;51.272;6.554;2023-03-01T12:59:57;6.33;;;5.37;;
4700;SDS011;8724;51.272;6.554;2023-03-01T13:02:36;7.97;;;5.10;;
4700;SDS011;8724;51.272;6.554;2023-03-01T13:05:24;6.30;;;5.23;;
4700;SDS011;8724;51.272;6.554;2023-03-01T13:08:01;5.63;;;4.77;;
4700;SDS011;8724;51.272;6.554;2023-03-01T13:10:39;8.40;;;4.70;;
4700;SDS011;8724;51.272;6.554;2023-03-01T13:13:13;6.03;;;4.80;;
4700;SDS011;8724;51.272;6.554;2023-03-01T13:15:46;6.00;;;4.13;;
4700;SDS011;8724;51.272;6.554;2023-03-01T13:18:28;7.27;;;4.80;;
4700;SDS011;8724;51.272;6.554;2023-03-01T13:21:02;6.30;;;5.10;;
4700;SDS011;8724;51.272;6.554;2023-03-01T13:23:36;8.87;;;4.73;;
4700;SDS011;8724;51.272;6.554;2023-03-01T13:26:09;5.00;;;4.47;;
4700;SDS011;8724;51.272;6.554;2023-03-01T13:28:47;5.23;;;4.67;;
4700;SDS011;8724;51.272;6.554;2023-03-01T13:34:40;5.47;;;4.23;;
4700;SDS011;8724;51.272;6.554;2023-03-01T13:37:21;4.93;;;4.37;;
4700;SDS011;8724;51.272;6.554;2023-03-01T13:39:56;5.17;;;4.10;;
4700;SDS011;8724;51.272;6.554;2023-03-01T13:42:41;9.87;;;5.33;;
4700;SDS011;8724;51.272;6.554;2023-03-01T13:45:33;7.23;;;5.30;;
4700;SDS011;8724;51.272;6.554;2023-03-01T13:48:08;7.97;;;4.70;;
4700;SDS011;8724;51.272;6.554;2023-03-01T13:50:44;6.50;;;5.07;;
4700;SDS011;8724;51.272;6.554;2023-03-01T13:53:16;6.20;;;5.10;;
4700;SDS011;8724;51.272;6.554;2023-03-01T13:55:47;6.30;;;5.03;;
4700;SDS011;8724;51.272;6.554;2023-03-01T13:58:19;6.40;;;5.57;;
4700;SDS011;8724;51.272;6.554;2023-03-01T14:00:55;7.03;;;4.90;;
4700;SDS011;8724;51.272;6.554;2023-03-01T14:03:25;12.20;;;5.33;;
4700;SDS011;8724;51.272;6.554;2023-03-01T14:05:59;8.77;;;7.37;;
4700;SDS011;8724;51.272;6.554;2023-03-01T14:08:40;11.13;;;7.63;;
4700;SDS011;8724;51.272;6.554;2023-03-01T14:11:21;8.03;;;6.40;;
4700;SDS011;8724;51.272;6.554;2023-03-01T14:14:41;8.07;;;4.73;;
4700;SDS011;8724;51.272;6.554;2023-03-01T14:20:09;7.80;;;4.67;;
4700;SDS011;8724;51.272;6.554;2023-03-01T14:22:43;6.20;;;4.17;;
4700;SDS011;8724;51.272;6.554;2023-03-01T14:25:18;7.43;;;4.80;;
4700;SDS011;8724;51.272;6.554;2023-03-01T14:27:56;5.87;;;4.50;;
4700;SDS011;8724;51.272;6.554;2023-03-01T14:30:30;8.73;;;4.90;;
4700;SDS011;8724;51.272;6.554;2023-03-01T14:33:02;7.30;;;5.53;;
4700;SDS011;8724;51.272;6.554;2023-03-01T14:35:33;6.07;;;4.97;;
4700;SDS011;8724;51.272;6.554;2023-03-01T14:38:04;4.87;;;4.10;;
4700;SDS011;8724;51.272;6.554;2023-03-01T14:40:34;7.73;;;5.20;;
4700;SDS011;8724;51.272;6.554;2023-03-01T14:43:08;5.67;;;4.47;;
4700;SDS011;8724;51.272;6.554;2023-03-01T14:45:39;7.63;;;5.13;;
4700;SDS011;8724;51.272;6.554;2023-03-01T14:48:14;5.87;;;5.27;;
4700;SDS011;8724;51.272;6.554;2023-03-01T14:50:43;7.03;;;5.20;;
4700;SDS011;8724;51.272;6.554;2023-03-01T14:53:16;6.30;;;4.80;;
4700;SDS011;8724;51.272;6.554;2023-03-01T14:55:47;6.50;;;4.93;;
4700;SDS011;8724;51.272;6.554;2023-03-01T14:58:20;5.83;;;5.20;;
4700;SDS011;8724;51.272;6.554;2023-03-01T15:00:51;6.33;;;5.23;;
4700;SDS011;8724;51.272;6.554;2023-03-01T15:03:25;6.77;;;5.23;;
4700;SDS011;8724;51.272;6.554;2023-03-01T15:05:59;7.10;;;5.10;;
4700;SDS011;8724;51.272;6.554;2023-03-01T15:08:30;5.53;;;4.77;;
4700;SDS011;8724;51.272;6.554;2023-03-01T15:11:02;4.90;;;4.33;;
4700;SDS011;8724;51.272;6.554;2023-03-01T15:13:35;7.00;;;5.07;;
4700;SDS011;8724;51.272;6.554;2023-03-01T15:16:07;8.37;;;5.30;;
4700;SDS011;8724;51.272;6.554;2023-03-01T15:18:42;16.60;;;12.17;;
4700;SDS011;8724;51.272;6.554;2023-03-01T15:21:17;9.10;;;8.17;;
4700;SDS011;8724;51.272;6.554;2023-03-01T15:23:51;10.87;;;7.13;;
4700;SDS011;8724;51.272;6.554;2023-03-01T15:26:25;11.77;;;6.07;;
4700;SDS011;8724;51.272;6.554;2023-03-01T15:28:58;6.00;;;5.07;;
4700;SDS011;8724;51.272;6.554;2023-03-01T15:31:28;8.50;;;5.67;;
4700;SDS011;8724;51.272;6.554;2023-03-01T15:34:08;7.43;;;4.97;;
4700;SDS011;8724;51.272;6.554;2023-03-01T15:36:41;6.13;;;5.30;;
4700;SDS011;8724;51.272;6.554;2023-03-01T15:39:27;6.20;;;5.33;;
4700;SDS011;8724;51.272;6.554;2023-03-01T15:42:04;7.10;;;5.20;;
4700;SDS011;8724;51.272;6.554;2023-03-01T15:44:34;25.73;;;8.10;;
4700;SDS011;8724;51.272;6.554;2023-03-01T15:47:21;7.00;;;5.80;;
4700;SDS011;8724;51.272;6.554;2023-03-01T15:49:52;7.07;;;5.80;;
4700;SDS011;8724;51.272;6.554;2023-03-01T15:52:23;7.63;;;4.90;;
4700;SDS011;8724;51.272;6.554;2023-03-01T15:55:00;8.00;;;5.63;;
4700;SDS011;8724;51.272;6.554;2023-03-01T15:57:31;6.47;;;5.47;;
4700;SDS011;8724;51.272;6.554;2023-03-01T15:59:59;6.10;;;5.07;;
4700;SDS011;8724;51.272;6.554;2023-03-01T16:02:30;5.93;;;5.33;;
4700;SDS011;8724;51.272;6.554;2023-03-01T16:04:58;9.30;;;6.43;;
4700;SDS011;8724;51.272;6.554;2023-03-01T16:07:27;10.40;;;6.67;;